Time;durP1;ratioP1;P1;durP2;ratioP2;P2;SDS_P1;SDS_P2;PMS_P1;PMS_P2;Temp;Humidity;BMP_temperature;BMP_pressure;BME280_temperature;BME280_humidity;BME280_pressure;Samples;Min_cycle;Max_cycle;Signal;HPM_P1;HPM_P2
2022/09/22 05:58:21;;;;;;;9.00;7.50;;;;;;;10.56;100.00;99932.84;1735865;78;21151;-45
2022/09/22 06:00:48;;;;;;;11.70;7.83;;;;;;;10.70;100.00;99930.13;1699081;82;21508;-36
2022/09/22 06:03:14;;;;;;;8.68;6.50;;;;;;;10.80;100.00;99932.25;1700201;82;21020;-37
2022/09/22 06:05:42;;;;;;;10.40;6.62;;;;;;;10.87;100.00;99932.64;1722902;81;21846;-37
2022/09/22 06:08:13;;;;;;;14.25;8.53;;;;;;;10.92;100.00;99933.47;1729913;81;21039;-44
2022/09/22 06:10:50;;;;;;;8.78;6.37;;;;;;;10.93;100.00;99932.15;1714086;82;21401;-44
2022/09/22 06:13:20;;;;;;;8.25;6.40;;;;;;;10.96;100.00;99935.61;1688970;81;21027;-45
2022/09/22 06:15:48;;;;;;;9.98;6.60;;;;;;;10.99;100.00;99943.02;1727077;81;21080;-37
2022/09/22 06:18:24;;;;;;;7.53;6.28;;;;;;;11.01;100.00;99942.99;1718280;81;21066;-42
2022/09/22 06:20:53;;;;;;;12.55;7.25;;;;;;;11.02;100.00;99944.31;1709414;81;21055;-44
2022/09/22 06:23:19;;;;;;;13.93;8.23;;;;;;;11.10;100.00;99949.04;1730766;81;21024;-37
2022/09/22 06:25:49;;;;;;;14.13;8.03;;;;;;;11.17;100.00;99949.41;1729599;81;21085;-37
2022/09/22 06:28:20;;;;;;;;;;;;;;;11.26;100.00;99948.93;1640629;81;21984;-43
2022/09/22 06:30:50;;;;;;;15.13;8.60;;;;;;;11.30;100.00;99941.01;1728562;81;20638;-45
2022/09/22 06:33:16;;;;;;;14.10;7.40;;;;;;;11.37;100.00;99944.47;1725692;81;20995;-45
2022/09/22 06:35:49;;;;;;;10.90;6.35;;;;;;;11.40;100.00;99948.36;1724970;81;21102;-45
2022/09/22 06:38:15;;;;;;;13.48;7.65;;;;;;;11.41;100.00;99950.09;1726124;81;21030;-38
2022/09/22 06:41:06;;;;;;;12.73;8.63;;;;;;;11.46;100.00;99950.48;1723502;81;21602;-36
2022/09/22 06:43:34;;;;;;;10.63;7.08;;;;;;;11.51;100.00;99951.75;1694530;81;21451;-36
2022/09/22 06:46:02;;;;;;;11.30;7.17;;;;;;;11.54;100.00;99953.05;1728154;81;21118;-38
2022/09/22 06:48:32;;;;;;;10.30;5.78;;;;;;;11.58;100.00;99959.11;1729097;81;21003;-37
2022/09/22 06:51:01;;;;;;;11.53;6.95;;;;;;;11.63;100.00;99954.70;1728426;81;21177;-45
2022/09/22 06:53:28;;;;;;;12.68;7.37;;;;;;;11.65;100.00;99955.54;1724708;81;21652;-44
2022/09/22 06:55:55;;;;;;;9.98;7.60;;;;;;;11.69;100.00;99960.73;1728830;81;21102;-45
2022/09/22 06:58:21;;;;;;;8.73;6.20;;;;;;;11.76;100.00;99959.37;1721689;80;21860;-45
2022/09/22 07:00:49;;;;;;;9.08;5.10;;;;;;;11.81;100.00;99965.02;1735632;80;21618;-37
2022/09/22 07:03:24;;;;;;;6.80;5.58;;;;;;;11.89;100.00;99957.10;1738012;80;21078;-38
2022/09/22 07:05:59;;;;;;;6.95;5.53;;;;;;;11.95;100.00;99957.03;1738959;80;21607;-36
2022/09/22 07:08:27;;;;;;;6.75;5.10;;;;;;;12.05;100.00;99960.41;1736241;80;21061;-37
2022/09/22 07:11:09;;;;;;;10.88;5.83;;;;;;;12.15;100.00;99956.80;1736221;80;21722;-37
2022/09/22 07:13:39;;;;;;;6.17;5.53;;;;;;;12.21;100.00;99954.96;1718316;81;20979;-37
2022/09/22 07:16:10;;;;;;;5.62;4.78;;;;;;;12.29;100.00;99954.86;1708125;82;21026;-37
2022/09/22 07:18:41;;;;;;;6.53;4.87;;;;;;;12.45;100.00;99960.79;1692306;81;21716;-35
2022/09/22 07:21:14;;;;;;;4.80;4.35;;;;;;;12.67;100.00;99959.62;1740339;80;21605;-37
2022/09/22 07:23:40;;;;;;;6.60;4.33;;;;;;;12.93;99.59;99957.95;1708648;82;21029;-37
2022/09/22 07:26:14;;;;;;;5.90;3.92;;;;;;;12.93;99.59;99957.95;1716765;81;21114;-37
2022/09/22 07:28:41;;;;;;;5.62;4.10;;;;;;;12.98;98.30;99962.66;1730192;81;21497;-36
2022/09/22 07:31:13;;;;;;;6.08;4.22;;;;;;;13.03;97.62;99960.83;1738610;80;21419;-36
2022/09/22 07:33:42;;;;;;;6.65;4.75;;;;;;;13.09;97.22;99958.56;1703085;82;21487;-36
2022/09/22 07:36:12;;;;;;;9.95;5.08;;;;;;;13.22;97.20;99960.58;1734576;82;21017;-36
2022/09/22 07:38:41;;;;;;;6.03;4.87;;;;;;;13.38;96.69;99954.63;1666320;82;21474;-36
2022/09/22 07:41:10;;;;;;;5.65;4.92;;;;;;;13.53;95.92;99955.25;1674651;82;21056;-37
2022/09/22 07:43:38;;;;;;;6.60;4.37;;;;;;;13.68;95.55;99960.66;1697085;82;21400;-37
2022/09/22 07:46:05;;;;;;;5.67;4.47;;;;;;;13.82;94.48;99958.66;1657667;84;21375;-44
2022/09/22 07:48:47;;;;;;;6.33;4.05;;;;;;;13.94;93.14;99960.20;1648981;85;21031;-45
2022/09/22 07:51:19;;;;;;;6.08;4.10;;;;;;;13.98;91.64;99954.44;1661379;84;21126;-44
2022/09/22 07:53:53;;;;;;;6.30;3.80;;;;;;;14.02;89.92;99947.75;1677276;83;21570;-44
2022/09/22 07:56:21;;;;;;;6.47;4.35;;;;;;;14.09;88.50;99949.84;1682306;83;21675;-37
2022/09/22 07:58:52;;;;;;;12.53;3.65;;;;;;;14.15;87.62;99949.72;1680677;83;21474;-44
2022/09/22 08:01:23;;;;;;;7.30;3.62;;;;;;;14.26;86.28;99944.21;1677643;83;21007;-44
2022/09/22 08:03:50;;;;;;;3.98;3.55;;;;;;;14.43;85.95;99943.86;1678380;83;21021;-44
2022/09/22 08:06:19;;;;;;;5.03;3.40;;;;;;;14.57;85.05;99945.80;1730093;81;21471;-37
2022/09/22 08:08:55;;;;;;;12.25;4.87;;;;;;;14.61;83.59;99936.48;1728461;81;23610;-44
2022/09/22 08:11:24;;;;;;;;;;;;;;;14.72;83.32;99935.36;1738571;80;21458;-37
2022/09/22 08:14:01;;;;;;;5.30;3.08;;;;;;;14.78;81.20;99932.13;1731311;81;20416;-42
2022/09/22 08:16:32;;;;;;;5.40;3.08;;;;;;;14.84;79.88;99922.80;1725426;81;21050;-43
2022/09/22 08:19:10;;;;;;;3.80;3.33;;;;;;;14.91;79.45;99919.57;1726350;80;21896;-37
2022/09/22 08:21:34;;;;;;;5.03;2.92;;;;;;;14.95;77.05;99919.89;1730084;81;21540;-36
2022/09/22 08:24:03;;;;;;;6.97;2.50;;;;;;;14.94;75.91;99922.57;1714782;81;21113;-36
2022/09/22 08:26:37;;;;;;;6.70;2.95;;;;;;;14.93;75.56;99916.89;1729767;81;21057;-44
2022/09/22 08:29:11;;;;;;;9.05;3.35;;;;;;;15.01;76.06;99921.52;1726221;81;21025;-45
2022/09/22 08:31:45;;;;;;;2.80;2.58;;;;;;;15.16;76.02;99919.84;1702035;82;21456;-35
2022/09/22 08:34:15;;;;;;;5.83;2.50;;;;;;;15.30;76.33;99924.75;1707594;82;21370;-37
2022/09/22 08:36:45;;;;;;;3.47;2.60;;;;;;;15.37;74.18;99928.98;1688305;82;21553;-43
2022/09/22 08:39:12;;;;;;;5.10;3.05;;;;;;;15.35;72.85;99927.69;1672214;84;21586;-44
2022/09/22 08:41:56;;;;;;;3.85;2.50;;;;;;;15.44;73.59;99921.33;1674027;84;21246;-37
2022/09/22 08:44:27;;;;;;;2.98;2.10;;;;;;;15.62;72.76;99920.88;1670802;84;21448;-44
2022/09/22 08:46:55;;;;;;;2.33;2.12;;;;;;;15.75;69.58;99917.91;1674652;83;21001;-38
2022/09/22 08:52:43;;;;;;;4.40;2.22;;;;;;;15.67;67.55;99912.85;1723083;82;20975;-37
2022/09/22 08:55:24;;;;;;;3.83;2.20;;;;;;;15.71;68.58;99901.29;1723371;81;21081;-45
2022/09/22 08:58:15;;;;;;;3.33;2.30;;;;;;;15.88;68.04;99904.33;1727093;81;20950;-37
2022/09/22 09:00:47;;;;;;;3.15;2.12;;;;;;;16.05;66.85;99899.90;1706420;83;21037;-43
2022/09/22 09:03:50;;;;;;;2.92;2.42;;;;;;;16.11;66.29;99894.45;1709739;83;21374;-44
2022/09/22 09:06:33;;;;;;;;;;;;;;;16.11;65.38;99891.80;1730784;82;21116;-44
2022/09/22 09:09:11;;;;;;;3.77;2.27;;;;;;;16.05;64.49;99887.16;1722040;82;20505;-44
2022/09/22 09:12:18;;;;;;;7.00;4.67;;;;;;;16.10;63.98;99879.98;1731886;81;21515;-44
2022/09/22 09:14:56;;;;;;;6.22;4.25;;;;;;;16.22;63.95;99883.58;1728839;81;21370;-44
2022/09/22 09:21:47;;;;;;;3.08;2.70;;;;;;;16.37;63.56;99881.81;1709113;82;21059;-37
2022/09/22 09:24:38;;;;;;;5.08;2.40;;;;;;;16.35;64.26;99888.92;1694535;82;21085;-43
2022/09/22 09:27:14;;;;;;;3.85;2.77;;;;;;;16.34;64.07;99892.91;1698803;82;21091;-44
2022/09/22 09:30:05;;;;;;;5.67;3.10;;;;;;;16.22;63.69;99900.28;1678140;83;21161;-45
2022/09/22 09:32:56;;;;;;;3.30;2.63;;;;;;;16.08;64.33;99911.70;1720820;80;21077;-37
2022/09/22 09:35:55;;;;;;;3.40;3.02;;;;;;;15.92;64.04;99901.16;1734645;80;21950;-44
2022/09/22 09:38:28;;;;;;;3.52;2.75;;;;;;;15.78;63.46;99904.66;1759821;80;21097;-37
2022/09/22 09:41:16;;;;;;;6.20;4.47;;;;;;;15.66;61.86;99897.48;1746610;80;21125;-38
2022/09/22 09:43:44;;;;;;;7.62;5.47;;;;;;;15.59;62.15;99883.13;1736361;81;21740;-37
2022/09/22 09:46:25;;;;;;;9.93;5.58;;;;;;;15.53;62.75;99887.26;1703479;80;21599;-46
2022/09/22 09:49:15;;;;;;;6.30;4.72;;;;;;;15.53;63.56;99885.48;1731833;81;21350;-36
2022/09/22 09:51:47;;;;;;;4.53;3.65;;;;;;;15.60;64.17;99894.98;1727380;81;21051;-36
2022/09/22 09:54:16;;;;;;;7.15;3.85;;;;;;;15.63;62.52;99892.28;1725199;81;21524;-35
2022/09/22 09:57:14;;;;;;;3.20;2.45;;;;;;;15.67;62.57;99895.71;1725050;81;21063;-38
2022/09/22 10:02:39;;;;;;;3.52;2.87;;;;;;;15.87;61.75;99895.15;1721117;81;21524;-36
2022/09/22 10:05:21;;;;;;;15.70;9.15;;;;;;;16.05;60.74;99889.80;1723878;81;21631;-37
2022/09/22 10:07:53;;;;;;;28.12;18.05;;;;;;;16.19;60.51;99885.88;1727004;81;21018;-44
2022/09/22 10:10:36;;;;;;;7.33;5.55;;;;;;;16.46;59.31;99889.44;1726143;80;21677;-44
2022/09/22 10:13:10;;;;;;;14.87;10.43;;;;;;;16.74;58.00;99892.58;1724710;81;21395;-37
2022/09/22 10:15:39;;;;;;;5.25;3.62;;;;;;;17.16;56.83;99889.03;1724196;81;21102;-39
2022/09/22 10:18:24;;;;;;;7.10;5.15;;;;;;;17.56;55.70;99901.73;1721709;81;20988;-37
2022/09/22 10:21:08;;;;;;;3.37;2.98;;;;;;;17.80;54.55;99895.23;1716189;81;21479;-38
2022/09/22 10:23:35;;;;;;;5.00;3.72;;;;;;;18.10;52.93;99881.33;1722298;81;21630;-46
2022/09/22 10:26:35;;;;;;;7.53;4.60;;;;;;;18.54;52.78;99874.77;1724244;81;21120;-39
2022/09/22 10:29:19;;;;;;;3.85;2.92;;;;;;;18.77;53.14;99867.27;1720333;81;21004;-45
2022/09/22 10:32:02;;;;;;;2.27;1.95;;;;;;;18.60;52.42;99882.02;1727173;81;21046;-45
2022/09/22 10:34:37;;;;;;;3.37;2.45;;;;;;;18.05;51.67;99883.28;1728473;81;21880;-45
2022/09/22 10:37:13;;;;;;;4.50;2.10;;;;;;;17.50;53.93;99891.36;1724530;81;21414;-45
2022/09/22 10:39:49;;;;;;;2.33;1.90;;;;;;;17.07;54.18;99891.10;1691791;81;21044;-37
2022/09/22 10:42:34;;;;;;;5.97;5.03;;;;;;;16.69;53.89;99887.87;1676599;84;21050;-37
2022/09/22 10:45:15;;;;;;;8.70;6.40;;;;;;;16.45;55.09;99900.05;1675286;84;21129;-44
2022/09/22 10:47:57;;;;;;;3.42;2.55;;;;;;;16.25;54.96;99908.58;1671205;84;21011;-45
2022/09/22 10:50:41;;;;;;;5.20;1.93;;;;;;;16.12;55.13;99900.59;1673580;84;21053;-45
2022/09/22 10:53:30;;;;;;;3.22;2.83;;;;;;;16.01;55.36;99893.00;1674653;83;21034;-43
2022/09/22 10:56:07;;;;;;;4.20;2.75;;;;;;;15.92;56.10;99899.84;1673868;84;21872;-37
2022/09/22 10:59:00;;;;;;;3.70;2.90;;;;;;;15.87;56.65;99903.92;1672972;83;21328;-44
2022/09/22 11:01:45;;;;;;;4.60;3.17;;;;;;;15.84;56.94;99899.20;1677535;84;21141;-46
2022/09/22 11:05:02;;;;;;;9.93;7.25;;;;;;;15.81;57.41;99902.78;1670098;83;21019;-45
2022/09/22 11:13:55;;;;;;;2.55;1.80;;;;;;;15.85;58.24;99890.38;1648597;86;21103;-46
2022/09/22 11:16:45;;;;;;;4.20;1.32;;;;;;;15.88;56.67;99891.59;1645360;86;21127;-37
2022/09/22 11:19:35;;;;;;;4.87;3.77;;;;;;;15.88;56.96;99887.64;1641570;86;21000;-37
2022/09/22 11:22:19;;;;;;;6.60;4.50;;;;;;;15.96;57.75;99879.94;1555347;91;21037;-46
2022/09/22 11:25:14;;;;;;;3.10;2.60;;;;;;;16.05;57.31;99884.53;1554122;91;21066;-45
2022/09/22 11:28:04;;;;;;;2.37;1.62;;;;;;;16.11;57.08;99882.57;1538598;91;21558;-43
2022/09/22 11:30:51;;;;;;;3.90;1.52;;;;;;;16.16;57.14;99885.08;1552922;91;21114;-37
2022/09/22 11:33:38;;;;;;;4.30;1.90;;;;;;;16.22;57.72;99876.98;1554097;90;20999;-37
2022/09/22 11:36:47;;;;;;;2.87;1.10;;;;;;;16.30;58.31;99877.64;1550186;90;21061;-45
2022/09/22 11:39:25;;;;;;;1.35;1.10;;;;;;;16.41;57.91;99878.18;1525370;92;21718;-38
2022/09/22 11:42:05;;;;;;;1.17;1.07;;;;;;;16.64;57.22;99874.83;1528119;91;21152;-36
2022/09/22 11:44:42;;;;;;;2.35;1.30;;;;;;;16.79;56.91;99880.09;1524360;91;21108;-45
2022/09/22 11:47:33;;;;;;;3.40;1.10;;;;;;;16.78;54.75;99877.06;1567742;89;21679;-45
2022/09/22 11:50:25;;;;;;;1.37;1.10;;;;;;;16.66;54.42;99874.77;1571643;89;21791;-38
2022/09/22 11:53:20;;;;;;;55.23;27.30;;;;;;;16.53;53.68;99880.04;1569787;89;21187;-37
2022/09/22 11:56:16;;;;;;;14.40;4.67;;;;;;;16.38;55.02;99878.72;1574556;89;21683;-37
2022/09/22 11:58:44;;;;;;;1.70;1.60;;;;;;;16.26;55.48;99872.03;1577728;88;21117;-39
2022/09/22 12:01:19;;;;;;;9.73;5.72;;;;;;;16.15;55.96;99871.03;1621939;86;21532;-45
2022/09/22 12:03:53;;;;;;;7.20;4.80;;;;;;;16.08;55.71;99872.13;1638586;86;21604;-44
2022/09/22 12:06:23;;;;;;;12.68;9.03;;;;;;;16.04;56.79;99872.25;1594431;87;21053;-44
2022/09/22 12:08:55;;;;;;;37.88;24.80;;;;;;;16.04;56.00;99869.61;1628699;86;21004;-44
2022/09/22 12:11:22;;;;;;;13.53;10.32;;;;;;;16.05;56.50;99867.38;1654463;85;21523;-45
2022/09/22 12:13:52;;;;;;;7.75;6.30;;;;;;;16.06;56.40;99862.50;1684683;85;20969;-44
2022/09/22 12:16:44;;;;;;;13.38;9.33;;;;;;;16.05;56.05;99862.10;1664314;83;21116;-44
2022/09/22 12:19:45;;;;;;;10.82;5.05;;;;;;;16.03;56.37;99862.61;1683292;83;21022;-44
2022/09/22 12:22:33;;;;;;;4.83;3.85;;;;;;;15.99;55.11;99859.64;1687937;83;21033;-45
2022/09/22 12:25:02;;;;;;;14.00;7.50;;;;;;;15.98;55.17;99865.38;1671301;85;21337;-45
2022/09/22 12:27:29;;;;;;;8.53;5.17;;;;;;;15.96;55.57;99859.29;1668148;83;21370;-44
2022/09/22 12:29:59;;;;;;;2.25;1.60;;;;;;;15.94;55.07;99860.66;1684090;83;20985;-44
2022/09/22 12:32:36;;;;;;;1.82;1.42;;;;;;;15.98;55.20;99865.38;1688885;83;21069;-44
2022/09/22 12:35:03;;;;;;;3.17;1.20;;;;;;;16.10;55.49;99855.78;1672454;83;21062;-44
2022/09/22 12:37:32;;;;;;;4.08;2.30;;;;;;;16.25;55.22;99846.55;1687420;83;21040;-44
2022/09/22 12:40:21;;;;;;;6.67;2.70;;;;;;;16.35;55.47;99843.16;1670406;83;21111;-37
2022/09/22 12:42:49;;;;;;;2.05;1.62;;;;;;;16.38;54.72;99851.00;1678627;83;21524;-37
2022/09/22 12:45:33;;;;;;;3.05;1.85;;;;;;;16.31;55.08;99843.73;1684086;83;21045;-38
2022/09/22 12:48:02;;;;;;;14.13;5.78;;;;;;;16.35;55.68;99847.11;1677915;83;21060;-37
2022/09/22 12:50:39;;;;;;;15.13;6.37;;;;;;;16.43;55.10;99857.87;1682120;83;21527;-44
2022/09/22 12:53:23;;;;;;;9.15;5.20;;;;;;;16.39;54.80;99854.91;1678516;85;21560;-44
2022/09/22 12:55:56;;;;;;;6.00;2.10;;;;;;;16.28;54.99;99860.95;1679777;83;21092;-37
2022/09/22 12:58:31;;;;;;;1.40;1.30;;;;;;;16.15;54.53;99875.44;1685346;83;21040;-37
2022/09/22 13:01:28;;;;;;;1.10;1.00;;;;;;;16.09;54.37;99885.72;1679552;85;21112;-37
2022/09/22 13:04:14;;;;;;;2.20;1.67;;;;;;;16.21;53.45;99880.53;1670978;83;21019;-44
2022/09/22 13:06:47;;;;;;;4.65;2.33;;;;;;;16.34;53.69;99881.03;1671823;83;21506;-45
2022/09/22 13:09:24;;;;;;;9.30;3.98;;;;;;;16.43;53.76;99874.17;1680414;83;21379;-44
2022/09/22 13:12:17;;;;;;;18.87;6.40;;;;;;;16.53;53.14;99874.76;1693478;83;21021;-37
2022/09/22 13:15:10;;;;;;;2.83;2.00;;;;;;;16.51;54.08;99880.06;1669962;86;21111;-37
2022/09/22 13:17:44;;;;;;;5.22;3.08;;;;;;;16.38;54.94;99882.22;1669772;85;21069;-44
2022/09/22 13:20:21;;;;;;;15.63;6.00;;;;;;;16.28;55.86;99883.86;1665021;86;21057;-44
2022/09/22 13:22:50;;;;;;;35.78;13.10;;;;;;;16.22;56.57;99888.41;1663018;85;20986;-44
